sensor_id;sensor_type;location;lat;lon;timestamp;temperature;humidity
39751;DHT22;37579;51.074;17.004;2023-03-14T00:01:57;23.90;56.30
39751;DHT22;37579;51.074;17.004;2023-03-14T00:04:23;23.90;56.30
39751;DHT22;37579;51.074;17.004;2023-03-14T00:06:49;23.90;56.40
39751;DHT22;37579;51.074;17.004;2023-03-14T00:09:16;23.90;56.40
39751;DHT22;37579;51.074;17.004;2023-03-14T00:11:42;23.90;56.50
39751;DHT22;37579;51.074;17.004;2023-03-14T00:14:08;23.90;56.50
39751;DHT22;37579;51.074;17.004;2023-03-14T00:16:34;23.90;56.50
39751;DHT22;37579;51.074;17.004;2023-03-14T00:19:00;23.90;56.50
39751;DHT22;37579;51.074;17.004;2023-03-14T00:21:26;23.90;56.50
39751;DHT22;37579;51.074;17.004;2023-03-14T00:23:52;23.80;56.50
39751;DHT22;37579;51.074;17.004;2023-03-14T00:26:19;23.80;56.50
39751;DHT22;37579;51.074;17.004;2023-03-14T00:28:46;23.80;56.60
39751;DHT22;37579;51.074;17.004;2023-03-14T00:31:15;23.80;56.70
39751;DHT22;37579;51.074;17.004;2023-03-14T00:33:42;23.80;56.80
39751;DHT22;37579;51.074;17.004;2023-03-14T00:36:13;23.80;56.80
39751;DHT22;37579;51.074;17.004;2023-03-14T00:38:41;23.80;56.90
39751;DHT22;37579;51.074;17.004;2023-03-14T00:41:09;23.80;56.90
39751;DHT22;37579;51.074;17.004;2023-03-14T00:43:35;23.80;56.80
39751;DHT22;37579;51.074;17.004;2023-03-14T00:46:01;23.80;56.80
39751;DHT22;37579;51.074;17.004;2023-03-14T00:48:27;23.80;56.80
39751;DHT22;37579;51.074;17.004;2023-03-14T00:50:53;23.80;56.90
39751;DHT22;37579;51.074;17.004;2023-03-14T00:53:19;23.70;56.90
39751;DHT22;37579;51.074;17.004;2023-03-14T00:55:46;23.70;56.90
39751;DHT22;37579;51.074;17.004;2023-03-14T00:58:13;23.80;56.90
39751;DHT22;37579;51.074;17.004;2023-03-14T01:00:39;23.70;56.90
39751;DHT22;37579;51.074;17.004;2023-03-14T01:03:06;23.70;56.90
39751;DHT22;37579;51.074;17.004;2023-03-14T01:05:32;23.70;56.90
39751;DHT22;37579;51.074;17.004;2023-03-14T01:07:58;23.70;56.90
39751;DHT22;37579;51.074;17.004;2023-03-14T01:10:24;23.70;57.00
39751;DHT22;37579;51.074;17.004;2023-03-14T01:12:50;23.70;56.90
39751;DHT22;37579;51.074;17.004;2023-03-14T01:15:16;23.70;56.90
39751;DHT22;37579;51.074;17.004;2023-03-14T01:17:43;23.70;56.90
39751;DHT22;37579;51.074;17.004;2023-03-14T01:20:11;23.70;56.90
39751;DHT22;37579;51.074;17.004;2023-03-14T01:22:38;23.70;57.00
39751;DHT22;37579;51.074;17.004;2023-03-14T01:25:15;23.70;56.90
39751;DHT22;37579;51.074;17.004;2023-03-14T01:27:42;23.70;56.90
39751;DHT22;37579;51.074;17.004;2023-03-14T01:30:09;23.70;56.80
39751;DHT22;37579;51.074;17.004;2023-03-14T01:32:36;23.70;56.80
39751;DHT22;37579;51.074;17.004;2023-03-14T01:35:02;23.70;56.80
39751;DHT22;37579;51.074;17.004;2023-03-14T01:37:28;23.70;56.80
39751;DHT22;37579;51.074;17.004;2023-03-14T01:39:54;23.80;57.00
39751;DHT22;37579;51.074;17.004;2023-03-14T01:42:20;23.70;57.00
39751;DHT22;37579;51.074;17.004;2023-03-14T01:44:57;23.60;57.10
39751;DHT22;37579;51.074;17.004;2023-03-14T01:47:23;23.70;56.90
39751;DHT22;37579;51.074;17.004;2023-03-14T01:52:27;23.70;56.90
39751;DHT22;37579;51.074;17.004;2023-03-14T01:55:10;23.70;57.00
39751;DHT22;37579;51.074;17.004;2023-03-14T01:57:41;23.70;57.10
39751;DHT22;37579;51.074;17.004;2023-03-14T02:00:13;23.60;56.90
39751;DHT22;37579;51.074;17.004;2023-03-14T02:02:43;23.60;56.90
39751;DHT22;37579;51.074;17.004;2023-03-14T02:05:12;23.60;57.00
39751;DHT22;37579;51.074;17.004;2023-03-14T02:07:50;23.60;56.80
39751;DHT22;37579;51.074;17.004;2023-03-14T02:10:24;23.60;56.90
39751;DHT22;37579;51.074;17.004;2023-03-14T02:12:52;23.60;56.90
39751;DHT22;37579;51.074;17.004;2023-03-14T02:15:35;23.60;56.90
39751;DHT22;37579;51.074;17.004;2023-03-14T02:18:08;23.60;57.00
39751;DHT22;37579;51.074;17.004;2023-03-14T02:21:05;23.60;56.90
39751;DHT22;37579;51.074;17.004;2023-03-14T02:26:23;23.50;57.00
39751;DHT22;37579;51.074;17.004;2023-03-14T02:28:51;23.50;56.90
39751;DHT22;37579;51.074;17.004;2023-03-14T02:31:19;23.50;57.00
39751;DHT22;37579;51.074;17.004;2023-03-14T02:33:48;23.50;57.10
39751;DHT22;37579;51.074;17.004;2023-03-14T02:36:15;23.50;57.10
39751;DHT22;37579;51.074;17.004;2023-03-14T02:41:08;23.50;57.20
39751;DHT22;37579;51.074;17.004;2023-03-14T02:43:38;23.50;57.10
39751;DHT22;37579;51.074;17.004;2023-03-14T02:46:12;23.40;57.10
39751;DHT22;37579;51.074;17.004;2023-03-14T02:49:12;23.50;57.20
39751;DHT22;37579;51.074;17.004;2023-03-14T02:51:32;23.50;57.30
39751;DHT22;37579;51.074;17.004;2023-03-14T02:53:58;23.40;57.10
39751;DHT22;37579;51.074;17.004;2023-03-14T02:56:25;23.40;57.20
39751;DHT22;37579;51.074;17.004;2023-03-14T02:58:51;23.40;57.10
39751;DHT22;37579;51.074;17.004;2023-03-14T03:01:39;23.40;57.00
39751;DHT22;37579;51.074;17.004;2023-03-14T03:04:05;23.40;57.10
39751;DHT22;37579;51.074;17.004;2023-03-14T03:06:31;23.40;57.00
39751;DHT22;37579;51.074;17.004;2023-03-14T03:08:56;23.40;57.70
39751;DHT22;37579;51.074;17.004;2023-03-14T03:11:22;23.40;57.10
39751;DHT22;37579;51.074;17.004;2023-03-14T03:13:48;23.40;57.20
39751;DHT22;37579;51.074;17.004;2023-03-14T03:16:14;23.40;57.00
39751;DHT22;37579;51.074;17.004;2023-03-14T03:18:40;23.40;57.10
39751;DHT22;37579;51.074;17.004;2023-03-14T03:21:06;23.40;56.90
39751;DHT22;37579;51.074;17.004;2023-03-14T03:23:34;23.40;56.90
39751;DHT22;37579;51.074;17.004;2023-03-14T03:26:00;23.40;56.80
39751;DHT22;37579;51.074;17.004;2023-03-14T03:28:28;23.40;56.70
39751;DHT22;37579;51.074;17.004;2023-03-14T03:30:55;23.40;56.70
39751;DHT22;37579;51.074;17.004;2023-03-14T03:33:21;23.40;56.80
39751;DHT22;37579;51.074;17.004;2023-03-14T03:35:49;23.40;57.40
39751;DHT22;37579;51.074;17.004;2023-03-14T03:38:21;23.40;56.50
39751;DHT22;37579;51.074;17.004;2023-03-14T03:40:50;23.40;56.50
39751;DHT22;37579;51.074;17.004;2023-03-14T03:43:16;23.40;56.60
39751;DHT22;37579;51.074;17.004;2023-03-14T03:45:44;23.40;56.70
39751;DHT22;37579;51.074;17.004;2023-03-14T03:48:10;23.40;56.60
39751;DHT22;37579;51.074;17.004;2023-03-14T03:50:36;23.40;56.60
39751;DHT22;37579;51.074;17.004;2023-03-14T03:53:02;23.40;56.60
39751;DHT22;37579;51.074;17.004;2023-03-14T03:55:28;23.40;56.50
39751;DHT22;37579;51.074;17.004;2023-03-14T03:57:54;23.40;56.60
39751;DHT22;37579;51.074;17.004;2023-03-14T04:00:20;23.40;56.70
39751;DHT22;37579;51.074;17.004;2023-03-14T04:02:46;23.30;56.60
39751;DHT22;37579;51.074;17.004;2023-03-14T04:05:15;23.40;56.70
39751;DHT22;37579;51.074;17.004;2023-03-14T04:07:48;23.30;56.60
39751;DHT22;37579;51.074;17.004;2023-03-14T04:10:19;23.40;56.60
39751;DHT22;37579;51.074;17.004;2023-03-14T04:13:03;23.40;56.50
39751;DHT22;37579;51.074;17.004;2023-03-14T04:15:31;23.40;56.50
39751;DHT22;37579;51.074;17.004;2023-03-14T04:18:01;23.30;56.50
39751;DHT22;37579;51.074;17.004;2023-03-14T04:20:26;23.30;56.50
39751;DHT22;37579;51.074;17.004;2023-03-14T04:22:53;23.30;56.50
39751;DHT22;37579;51.074;17.004;2023-03-14T04:25:19;23.30;56.40
39751;DHT22;37579;51.074;17.004;2023-03-14T04:27:50;23.30;56.40
39751;DHT22;37579;51.074;17.004;2023-03-14T04:30:22;23.30;56.40
39751;DHT22;37579;51.074;17.004;2023-03-14T04:32:58;23.30;56.50
39751;DHT22;37579;51.074;17.004;2023-03-14T04:35:25;23.30;56.40
39751;DHT22;37579;51.074;17.004;2023-03-14T04:37:56;23.30;56.30
39751;DHT22;37579;51.074;17.004;2023-03-14T04:40:22;23.30;56.30
39751;DHT22;37579;51.074;17.004;2023-03-14T04:42:51;23.30;56.30
39751;DHT22;37579;51.074;17.004;2023-03-14T04:45:17;23.30;56.50
39751;DHT22;37579;51.074;17.004;2023-03-14T04:47:43;23.30;56.40
39751;DHT22;37579;51.074;17.004;2023-03-14T04:50:13;23.30;56.60
39751;DHT22;37579;51.074;17.004;2023-03-14T04:52:39;23.30;56.40
39751;DHT22;37579;51.074;17.004;2023-03-14T04:55:05;23.30;56.50
39751;DHT22;37579;51.074;17.004;2023-03-14T04:57:31;23.30;56.40
39751;DHT22;37579;51.074;17.004;2023-03-14T04:59:58;23.30;56.40
39751;DHT22;37579;51.074;17.004;2023-03-14T05:02:44;23.30;56.50
39751;DHT22;37579;51.074;17.004;2023-03-14T05:05:20;23.30;56.50
39751;DHT22;37579;51.074;17.004;2023-03-14T05:08:01;23.30;56.50
39751;DHT22;37579;51.074;17.004;2023-03-14T05:10:54;23.30;56.50
39751;DHT22;37579;51.074;17.004;2023-03-14T05:13:49;23.30;56.40
39751;DHT22;37579;51.074;17.004;2023-03-14T05:16:24;23.30;56.30
39751;DHT22;37579;51.074;17.004;2023-03-14T05:19:10;23.30;56.30
39751;DHT22;37579;51.074;17.004;2023-03-14T05:21:44;23.30;56.40
39751;DHT22;37579;51.074;17.004;2023-03-14T05:24:19;23.30;56.30
39751;DHT22;37579;51.074;17.004;2023-03-14T05:27:04;23.30;56.20
39751;DHT22;37579;51.074;17.004;2023-03-14T05:29:42;23.30;56.30
39751;DHT22;37579;51.074;17.004;2023-03-14T05:32:47;23.30;56.30
39751;DHT22;37579;51.074;17.004;2023-03-14T05:35:44;23.30;56.30
39751;DHT22;37579;51.074;17.004;2023-03-14T05:38:29;23.30;56.30
39751;DHT22;37579;51.074;17.004;2023-03-14T05:41:30;23.30;56.20
39751;DHT22;37579;51.074;17.004;2023-03-14T05:43:56;23.40;56.20
39751;DHT22;37579;51.074;17.004;2023-03-14T05:46:27;23.40;56.10
39751;DHT22;37579;51.074;17.004;2023-03-14T05:49:06;23.40;56.00
39751;DHT22;37579;51.074;17.004;2023-03-14T05:51:54;23.50;55.90
39751;DHT22;37579;51.074;17.004;2023-03-14T05:54:40;23.50;55.80
39751;DHT22;37579;51.074;17.004;2023-03-14T05:57:18;23.50;55.70
39751;DHT22;37579;51.074;17.004;2023-03-14T06:00:10;23.60;55.70
39751;DHT22;37579;51.074;17.004;2023-03-14T06:02:45;23.60;55.60
39751;DHT22;37579;51.074;17.004;2023-03-14T06:05:20;23.60;55.60
39751;DHT22;37579;51.074;17.004;2023-03-14T06:07:46;23.60;55.70
39751;DHT22;37579;51.074;17.004;2023-03-14T06:10:12;23.60;55.80
39751;DHT22;37579;51.074;17.004;2023-03-14T06:12:38;23.70;56.00
39751;DHT22;37579;51.074;17.004;2023-03-14T06:15:05;23.70;56.20
39751;DHT22;37579;51.074;17.004;2023-03-14T06:17:32;23.70;56.30
39751;DHT22;37579;51.074;17.004;2023-03-14T06:20:05;23.70;56.20
39751;DHT22;37579;51.074;17.004;2023-03-14T06:22:31;23.70;56.10
39751;DHT22;37579;51.074;17.004;2023-03-14T06:24:57;23.70;56.10
39751;DHT22;37579;51.074;17.004;2023-03-14T06:27:25;23.70;56.00
39751;DHT22;37579;51.074;17.004;2023-03-14T06:29:53;23.70;56.00
39751;DHT22;37579;51.074;17.004;2023-03-14T06:32:19;23.80;56.10
39751;DHT22;37579;51.074;17.004;2023-03-14T06:34:48;23.80;56.10
39751;DHT22;37579;51.074;17.004;2023-03-14T06:37:14;23.70;56.10
39751;DHT22;37579;51.074;17.004;2023-03-14T06:39:40;23.80;56.20
39751;DHT22;37579;51.074;17.004;2023-03-14T06:42:13;23.80;56.30
39751;DHT22;37579;51.074;17.004;2023-03-14T06:44:41;23.70;56.10
39751;DHT22;37579;51.074;17.004;2023-03-14T06:47:06;23.80;56.00
39751;DHT22;37579;51.074;17.004;2023-03-14T06:49:34;23.80;56.00
39751;DHT22;37579;51.074;17.004;2023-03-14T06:52:01;23.80;55.90
39751;DHT22;37579;51.074;17.004;2023-03-14T06:54:29;23.70;55.90
39751;DHT22;37579;51.074;17.004;2023-03-14T06:56:55;23.80;56.00
39751;DHT22;37579;51.074;17.004;2023-03-14T06:59:20;23.80;56.00
39751;DHT22;37579;51.074;17.004;2023-03-14T07:01:48;23.80;55.90
39751;DHT22;37579;51.074;17.004;2023-03-14T07:04:16;23.80;55.80
39751;DHT22;37579;51.074;17.004;2023-03-14T07:06:46;23.90;55.80
39751;DHT22;37579;51.074;17.004;2023-03-14T07:09:14;23.90;55.80
39751;DHT22;37579;51.074;17.004;2023-03-14T07:11:46;23.90;55.90
39751;DHT22;37579;51.074;17.004;2023-03-14T07:14:12;23.90;55.90
39751;DHT22;37579;51.074;17.004;2023-03-14T07:16:38;23.90;55.90
39751;DHT22;37579;51.074;17.004;2023-03-14T07:19:06;23.90;56.00
39751;DHT22;37579;51.074;17.004;2023-03-14T07:21:32;23.90;56.10
39751;DHT22;37579;51.074;17.004;2023-03-14T07:24:00;23.90;56.10
39751;DHT22;37579;51.074;17.004;2023-03-14T07:28:54;21.50;41.50
39751;DHT22;37579;51.074;17.004;2023-03-14T07:31:21;21.20;45.00
39751;DHT22;37579;51.074;17.004;2023-03-14T07:33:47;22.10;48.70
39751;DHT22;37579;51.074;17.004;2023-03-14T07:36:14;22.80;49.10
39751;DHT22;37579;51.074;17.004;2023-03-14T07:38:43;23.10;48.90
39751;DHT22;37579;51.074;17.004;2023-03-14T07:41:27;23.30;48.90
39751;DHT22;37579;51.074;17.004;2023-03-14T07:44:12;23.40;49.20
39751;DHT22;37579;51.074;17.004;2023-03-14T07:46:37;23.50;49.40
39751;DHT22;37579;51.074;17.004;2023-03-14T07:49:03;23.50;49.80
39751;DHT22;37579;51.074;17.004;2023-03-14T07:51:29;23.50;50.00
39751;DHT22;37579;51.074;17.004;2023-03-14T07:53:55;23.50;51.00
39751;DHT22;37579;51.074;17.004;2023-03-14T07:56:21;23.50;50.50
39751;DHT22;37579;51.074;17.004;2023-03-14T07:58:46;23.50;50.80
39751;DHT22;37579;51.074;17.004;2023-03-14T08:01:12;23.60;51.10
39751;DHT22;37579;51.074;17.004;2023-03-14T08:03:38;23.60;51.40
39751;DHT22;37579;51.074;17.004;2023-03-14T08:06:04;23.60;51.60
39751;DHT22;37579;51.074;17.004;2023-03-14T08:08:30;23.60;51.80
39751;DHT22;37579;51.074;17.004;2023-03-14T08:10:55;23.60;52.00
39751;DHT22;37579;51.074;17.004;2023-03-14T08:13:21;23.60;52.10
39751;DHT22;37579;51.074;17.004;2023-03-14T08:15:49;23.60;52.20
39751;DHT22;37579;51.074;17.004;2023-03-14T08:18:15;23.60;52.30
39751;DHT22;37579;51.074;17.004;2023-03-14T08:20:41;23.60;52.50
39751;DHT22;37579;51.074;17.004;2023-03-14T08:23:06;23.60;52.60
39751;DHT22;37579;51.074;17.004;2023-03-14T08:25:32;23.60;52.60
39751;DHT22;37579;51.074;17.004;2023-03-14T08:27:58;23.60;52.70
39751;DHT22;37579;51.074;17.004;2023-03-14T08:30:24;23.60;52.90
39751;DHT22;37579;51.074;17.004;2023-03-14T08:32:50;23.60;53.30
39751;DHT22;37579;51.074;17.004;2023-03-14T08:35:16;23.60;53.60
39751;DHT22;37579;51.074;17.004;2023-03-14T08:37:42;23.70;53.90
39751;DHT22;37579;51.074;17.004;2023-03-14T08:40:09;23.70;54.10
39751;DHT22;37579;51.074;17.004;2023-03-14T08:42:40;23.80;54.20
39751;DHT22;37579;51.074;17.004;2023-03-14T08:45:07;23.80;54.20
39751;DHT22;37579;51.074;17.004;2023-03-14T08:47:33;23.90;54.20
39751;DHT22;37579;51.074;17.004;2023-03-14T08:49:59;23.90;54.60
39751;DHT22;37579;51.074;17.004;2023-03-14T08:52:25;23.90;54.00
39751;DHT22;37579;51.074;17.004;2023-03-14T08:54:51;24.00;53.90
39751;DHT22;37579;51.074;17.004;2023-03-14T08:57:16;24.00;53.80
39751;DHT22;37579;51.074;17.004;2023-03-14T08:59:42;24.10;53.80
39751;DHT22;37579;51.074;17.004;2023-03-14T09:02:12;24.20;53.90
39751;DHT22;37579;51.074;17.004;2023-03-14T09:04:37;24.10;53.90
39751;DHT22;37579;51.074;17.004;2023-03-14T09:07:04;24.20;54.00
39751;DHT22;37579;51.074;17.004;2023-03-14T09:09:30;24.20;54.00
39751;DHT22;37579;51.074;17.004;2023-03-14T09:11:57;24.20;54.20
39751;DHT22;37579;51.074;17.004;2023-03-14T09:14:23;24.30;54.20
39751;DHT22;37579;51.074;17.004;2023-03-14T09:16:49;24.30;54.10
39751;DHT22;37579;51.074;17.004;2023-03-14T09:19:14;24.40;54.10
39751;DHT22;37579;51.074;17.004;2023-03-14T09:21:40;24.40;54.00
39751;DHT22;37579;51.074;17.004;2023-03-14T09:24:06;24.40;53.90
39751;DHT22;37579;51.074;17.004;2023-03-14T09:26:32;24.40;53.80
39751;DHT22;37579;51.074;17.004;2023-03-14T09:28:58;24.50;53.70
39751;DHT22;37579;51.074;17.004;2023-03-14T09:31:24;24.50;53.40
39751;DHT22;37579;51.074;17.004;2023-03-14T09:33:50;24.60;53.40
39751;DHT22;37579;51.074;17.004;2023-03-14T09:36:16;24.60;53.20
39751;DHT22;37579;51.074;17.004;2023-03-14T09:38:42;24.60;53.20
39751;DHT22;37579;51.074;17.004;2023-03-14T09:43:51;24.60;53.00
39751;DHT22;37579;51.074;17.004;2023-03-14T09:46:18;24.60;52.90
39751;DHT22;37579;51.074;17.004;2023-03-14T09:48:45;24.60;52.80
39751;DHT22;37579;51.074;17.004;2023-03-14T09:51:14;24.60;52.60
39751;DHT22;37579;51.074;17.004;2023-03-14T09:53:44;24.60;52.40
39751;DHT22;37579;51.074;17.004;2023-03-14T09:56:18;24.60;52.50
39751;DHT22;37579;51.074;17.004;2023-03-14T09:58:50;24.60;52.80
39751;DHT22;37579;51.074;17.004;2023-03-14T10:01:20;24.60;52.80
39751;DHT22;37579;51.074;17.004;2023-03-14T10:03:48;24.60;52.70
39751;DHT22;37579;51.074;17.004;2023-03-14T10:06:15;24.50;52.60
39751;DHT22;37579;51.074;17.004;2023-03-14T10:08:43;24.50;52.60
39751;DHT22;37579;51.074;17.004;2023-03-14T10:11:19;24.40;52.40
39751;DHT22;37579;51.074;17.004;2023-03-14T10:14:05;24.40;52.30
39751;DHT22;37579;51.074;17.004;2023-03-14T10:16:38;24.40;52.20
39751;DHT22;37579;51.074;17.004;2023-03-14T10:19:10;24.40;51.60
39751;DHT22;37579;51.074;17.004;2023-03-14T10:21:41;24.30;51.00
39751;DHT22;37579;51.074;17.004;2023-03-14T10:24:32;24.30;51.00
39751;DHT22;37579;51.074;17.004;2023-03-14T10:27:01;24.20;51.00
39751;DHT22;37579;51.074;17.004;2023-03-14T10:29:30;24.20;50.80
39751;DHT22;37579;51.074;17.004;2023-03-14T10:32:06;24.20;50.60
39751;DHT22;37579;51.074;17.004;2023-03-14T10:34:35;24.20;50.90
39751;DHT22;37579;51.074;17.004;2023-03-14T10:37:24;24.20;51.00
39751;DHT22;37579;51.074;17.004;2023-03-14T10:40:02;24.30;51.10
39751;DHT22;37579;51.074;17.004;2023-03-14T10:42:33;24.30;51.40
39751;DHT22;37579;51.074;17.004;2023-03-14T10:47:49;24.30;51.60
39751;DHT22;37579;51.074;17.004;2023-03-14T10:50:28;24.30;50.90
39751;DHT22;37579;51.074;17.004;2023-03-14T10:52:55;24.30;50.50
39751;DHT22;37579;51.074;17.004;2023-03-14T10:55:23;24.30;50.00
39751;DHT22;37579;51.074;17.004;2023-03-14T10:57:49;24.30;50.30
39751;DHT22;37579;51.074;17.004;2023-03-14T11:00:20;24.40;50.30
39751;DHT22;37579;51.074;17.004;2023-03-14T11:03:12;24.50;50.30
39751;DHT22;37579;51.074;17.004;2023-03-14T11:06:20;22.80;44.30
39751;DHT22;37579;51.074;17.004;2023-03-14T11:11:39;21.40;44.80
39751;DHT22;37579;51.074;17.004;2023-03-14T11:14:38;21.00;45.40
39751;DHT22;37579;51.074;17.004;2023-03-14T11:31:27;23.30;45.30
39751;DHT22;37579;51.074;17.004;2023-03-14T11:36:38;23.30;45.40
39751;DHT22;37579;51.074;17.004;2023-03-14T11:39:13;23.40;44.80
39751;DHT22;37579;51.074;17.004;2023-03-14T11:41:41;23.40;44.70
39751;DHT22;37579;51.074;17.004;2023-03-14T11:44:36;23.50;44.70
39751;DHT22;37579;51.074;17.004;2023-03-14T11:47:11;23.50;44.30
39751;DHT22;37579;51.074;17.004;2023-03-14T11:50:15;23.50;44.70
39751;DHT22;37579;51.074;17.004;2023-03-14T11:52:54;23.60;44.60
39751;DHT22;37579;51.074;17.004;2023-03-14T11:55:28;23.60;44.50
39751;DHT22;37579;51.074;17.004;2023-03-14T11:58:00;23.60;43.90
39751;DHT22;37579;51.074;17.004;2023-03-14T12:00:27;23.60;44.80
39751;DHT22;37579;51.074;17.004;2023-03-14T12:08:12;23.60;44.00
39751;DHT22;37579;51.074;17.004;2023-03-14T12:10:49;23.60;43.60
39751;DHT22;37579;51.074;17.004;2023-03-14T12:13:16;23.60;44.10
39751;DHT22;37579;51.074;17.004;2023-03-14T12:15:49;23.70;44.20
39751;DHT22;37579;51.074;17.004;2023-03-14T12:18:31;23.80;44.20
39751;DHT22;37579;51.074;17.004;2023-03-14T12:21:03;23.80;44.50
39751;DHT22;37579;51.074;17.004;2023-03-14T12:26:26;23.90;45.50
39751;DHT22;37579;51.074;17.004;2023-03-14T12:44:52;24.00;47.00
39751;DHT22;37579;51.074;17.004;2023-03-14T12:49:51;24.00;47.50
39751;DHT22;37579;51.074;17.004;2023-03-14T12:55:21;24.00;47.60
39751;DHT22;37579;51.074;17.004;2023-03-14T13:00:23;24.00;47.80
39751;DHT22;37579;51.074;17.004;2023-03-14T13:03:22;24.00;48.00
39751;DHT22;37579;51.074;17.004;2023-03-14T13:06:02;24.10;48.00
39751;DHT22;37579;51.074;17.004;2023-03-14T13:08:34;24.00;48.10
39751;DHT22;37579;51.074;17.004;2023-03-14T13:11:01;24.00;48.10
39751;DHT22;37579;51.074;17.004;2023-03-14T13:13:28;23.90;48.20
39751;DHT22;37579;51.074;17.004;2023-03-14T13:15:56;23.90;48.20
39751;DHT22;37579;51.074;17.004;2023-03-14T13:18:29;24.00;48.20
39751;DHT22;37579;51.074;17.004;2023-03-14T13:21:07;23.90;48.20
39751;DHT22;37579;51.074;17.004;2023-03-14T13:23:36;23.90;48.30
39751;DHT22;37579;51.074;17.004;2023-03-14T13:26:03;23.90;48.40
39751;DHT22;37579;51.074;17.004;2023-03-14T13:28:32;23.90;48.50
39751;DHT22;37579;51.074;17.004;2023-03-14T13:31:02;23.90;48.80
39751;DHT22;37579;51.074;17.004;2023-03-14T13:33:28;23.90;48.80
39751;DHT22;37579;51.074;17.004;2023-03-14T13:36:05;23.80;48.80
39751;DHT22;37579;51.074;17.004;2023-03-14T13:38:34;23.90;48.90
39751;DHT22;37579;51.074;17.004;2023-03-14T13:41:04;23.80;48.90
39751;DHT22;37579;51.074;17.004;2023-03-14T13:43:33;23.80;48.90
39751;DHT22;37579;51.074;17.004;2023-03-14T13:46:06;23.80;49.00
39751;DHT22;37579;51.074;17.004;2023-03-14T13:48:35;23.80;49.60
39751;DHT22;37579;51.074;17.004;2023-03-14T13:51:06;23.80;49.00
39751;DHT22;37579;51.074;17.004;2023-03-14T13:56:11;23.80;49.10
39751;DHT22;37579;51.074;17.004;2023-03-14T13:58:38;23.80;49.10
39751;DHT22;37579;51.074;17.004;2023-03-14T14:01:05;23.80;49.10
39751;DHT22;37579;51.074;17.004;2023-03-14T14:03:34;23.80;49.20
39751;DHT22;37579;51.074;17.004;2023-03-14T14:06:02;23.80;49.20
39751;DHT22;37579;51.074;17.004;2023-03-14T14:08:29;23.80;49.20
39751;DHT22;37579;51.074;17.004;2023-03-14T14:10:59;23.70;49.20
39751;DHT22;37579;51.074;17.004;2023-03-14T14:13:27;23.80;49.20
39751;DHT22;37579;51.074;17.004;2023-03-14T14:15:54;23.80;49.20
39751;DHT22;37579;51.074;17.004;2023-03-14T14:18:23;23.80;49.20
39751;DHT22;37579;51.074;17.004;2023-03-14T14:20:50;23.80;49.20
39751;DHT22;37579;51.074;17.004;2023-03-14T14:23:22;23.80;49.20
39751;DHT22;37579;51.074;17.004;2023-03-14T14:25:52;23.90;49.10
39751;DHT22;37579;51.074;17.004;2023-03-14T14:33:58;23.90;49.10
39751;DHT22;37579;51.074;17.004;2023-03-14T14:36:39;23.90;49.10
39751;DHT22;37579;51.074;17.004;2023-03-14T14:39:21;23.90;49.00
39751;DHT22;37579;51.074;17.004;2023-03-14T14:41:50;23.90;49.00
39751;DHT22;37579;51.074;17.004;2023-03-14T14:44:27;23.90;49.00
39751;DHT22;37579;51.074;17.004;2023-03-14T14:46:55;23.80;49.00
39751;DHT22;37579;51.074;17.004;2023-03-14T14:49:28;23.80;49.00
39751;DHT22;37579;51.074;17.004;2023-03-14T14:52:04;23.90;49.10
39751;DHT22;37579;51.074;17.004;2023-03-14T14:54:46;23.90;49.30
39751;DHT22;37579;51.074;17.004;2023-03-14T14:57:28;23.90;49.30
39751;DHT22;37579;51.074;17.004;2023-03-14T15:00:07;23.90;49.30
39751;DHT22;37579;51.074;17.004;2023-03-14T15:02:48;24.00;49.00
39751;DHT22;37579;51.074;17.004;2023-03-14T15:05:19;24.00;48.90
39751;DHT22;37579;51.074;17.004;2023-03-14T15:07:46;24.10;49.10
39751;DHT22;37579;51.074;17.004;2023-03-14T15:10:17;24.10;49.20
39751;DHT22;37579;51.074;17.004;2023-03-14T15:12:43;24.10;49.20
39751;DHT22;37579;51.074;17.004;2023-03-14T15:15:11;24.10;49.30
39751;DHT22;37579;51.074;17.004;2023-03-14T15:17:38;24.20;49.30
39751;DHT22;37579;51.074;17.004;2023-03-14T15:20:14;24.20;49.30
39751;DHT22;37579;51.074;17.004;2023-03-14T15:22:41;24.20;49.30
39751;DHT22;37579;51.074;17.004;2023-03-14T15:25:07;24.30;49.40
39751;DHT22;37579;51.074;17.004;2023-03-14T15:27:34;24.30;49.40
39751;DHT22;37579;51.074;17.004;2023-03-14T15:30:00;24.30;49.40
39751;DHT22;37579;51.074;17.004;2023-03-14T15:32:26;24.30;49.50
39751;DHT22;37579;51.074;17.004;2023-03-14T15:34:56;24.40;49.50
39751;DHT22;37579;51.074;17.004;2023-03-14T15:37:22;24.40;49.60
39751;DHT22;37579;51.074;17.004;2023-03-14T15:39:49;24.40;49.50
39751;DHT22;37579;51.074;17.004;2023-03-14T15:42:15;24.40;49.80
39751;DHT22;37579;51.074;17.004;2023-03-14T15:44:40;24.40;49.70
39751;DHT22;37579;51.074;17.004;2023-03-14T15:47:08;24.50;49.70
39751;DHT22;37579;51.074;17.004;2023-03-14T15:49:34;24.50;49.90
39751;DHT22;37579;51.074;17.004;2023-03-14T15:52:00;24.50;49.90
39751;DHT22;37579;51.074;17.004;2023-03-14T15:54:26;24.50;50.10
39751;DHT22;37579;51.074;17.004;2023-03-14T15:56:57;24.50;50.20
39751;DHT22;37579;51.074;17.004;2023-03-14T15:59:25;24.50;50.10
39751;DHT22;37579;51.074;17.004;2023-03-14T16:01:51;24.50;50.20
39751;DHT22;37579;51.074;17.004;2023-03-14T16:04:17;24.60;50.20
39751;DHT22;37579;51.074;17.004;2023-03-14T16:06:44;24.60;50.10
39751;DHT22;37579;51.074;17.004;2023-03-14T16:09:13;24.60;50.20
39751;DHT22;37579;51.074;17.004;2023-03-14T16:11:39;24.60;50.30
39751;DHT22;37579;51.074;17.004;2023-03-14T16:14:05;24.60;50.30
39751;DHT22;37579;51.074;17.004;2023-03-14T16:16:31;24.60;50.20
39751;DHT22;37579;51.074;17.004;2023-03-14T16:18:57;24.50;50.10
39751;DHT22;37579;51.074;17.004;2023-03-14T16:21:23;24.50;49.90
39751;DHT22;37579;51.074;17.004;2023-03-14T16:23:49;24.40;49.40
39751;DHT22;37579;51.074;17.004;2023-03-14T16:26:17;24.40;49.40
39751;DHT22;37579;51.074;17.004;2023-03-14T16:28:45;24.40;49.70
39751;DHT22;37579;51.074;17.004;2023-03-14T16:31:13;24.40;49.50
39751;DHT22;37579;51.074;17.004;2023-03-14T16:33:41;24.40;49.50
39751;DHT22;37579;51.074;17.004;2023-03-14T16:36:10;24.40;49.40
39751;DHT22;37579;51.074;17.004;2023-03-14T16:38:39;24.40;49.30
39751;DHT22;37579;51.074;17.004;2023-03-14T16:41:17;24.40;49.40
39751;DHT22;37579;51.074;17.004;2023-03-14T16:43:44;24.40;49.40
39751;DHT22;37579;51.074;17.004;2023-03-14T16:46:15;24.40;49.40
39751;DHT22;37579;51.074;17.004;2023-03-14T16:48:41;24.50;49.40
39751;DHT22;37579;51.074;17.004;2023-03-14T16:51:07;24.50;49.50